Time;durP1;ratioP1;P1;durP2;ratioP2;P2;SDS_P1;SDS_P2;PMS_P1;PMS_P2;Temp;Humidity;BMP_temperature;BMP_pressure;BME280_temperature;BME280_humidity;BME280_pressure;Samples;Min_cycle;Max_cycle;Signal;HPM_P1;HPM_P2
2021/08/18 00:02:07;;;;;;;15.87;14.17;;;;;;;14.88;100.00;100600.41;5017998;28;20323;-72
2021/08/18 00:04:32;;;;;;;15.10;13.50;;;;;;;14.81;100.00;100597.25;5018176;28;20179;-72
2021/08/18 00:07:00;;;;;;;15.10;13.53;;;;;;;14.70;100.00;100593.88;5033802;28;20715;-72
2021/08/18 00:09:29;;;;;;;16.73;14.57;;;;;;;14.75;100.00;100582.06;5008817;28;20238;-73
2021/08/18 00:11:54;;;;;;;16.33;14.37;;;;;;;14.71;100.00;100586.50;5031097;28;20238;-73
2021/08/18 00:14:20;;;;;;;15.63;13.87;;;;;;;14.75;100.00;100576.59;5054093;28;20194;-72
2021/08/18 00:16:48;;;;;;;16.13;14.20;;;;;;;14.86;100.00;100581.56;5021472;28;20216;-73
2021/08/18 00:19:14;;;;;;;15.87;14.13;;;;;;;14.85;100.00;100581.84;5030690;28;20272;-72
2021/08/18 00:21:42;;;;;;;17.97;14.77;;;;;;;14.87;100.00;100582.38;5017389;28;20211;-72
2021/08/18 00:24:09;;;;;;;15.77;14.07;;;;;;;14.89;100.00;100578.22;5017748;28;20187;-72
2021/08/18 00:26:35;;;;;;;16.83;13.97;;;;;;;14.93;100.00;100578.44;5066805;28;20229;-73
2021/08/18 00:29:03;;;;;;;14.73;13.17;;;;;;;14.80;100.00;100580.03;5016817;28;20211;-72
2021/08/18 00:31:29;;;;;;;16.40;14.17;;;;;;;14.90;100.00;100579.03;5013733;28;20215;-73
2021/08/18 00:33:57;;;;;;;16.67;14.30;;;;;;;14.90;100.00;100584.50;5046777;28;20224;-72
2021/08/18 00:36:22;;;;;;;17.63;14.30;;;;;;;14.99;100.00;100578.84;5014326;28;20208;-72
2021/08/18 00:38:53;;;;;;;16.37;14.67;;;;;;;15.07;100.00;100571.84;5061239;28;20329;-73
2021/08/18 00:41:20;;;;;;;17.40;15.07;;;;;;;14.86;100.00;100578.03;5044358;28;20219;-72
2021/08/18 00:43:49;;;;;;;15.93;14.23;;;;;;;14.91;100.00;100580.63;4997541;28;20274;-72
2021/08/18 00:46:14;;;;;;;16.40;14.10;;;;;;;14.95;100.00;100582.50;5050081;28;20834;-72
2021/08/18 00:48:40;;;;;;;15.90;14.20;;;;;;;14.93;100.00;100589.38;5016775;28;20179;-72
2021/08/18 00:51:13;;;;;;;16.60;14.87;;;;;;;14.96;100.00;100591.50;5016892;28;20754;-72
2021/08/18 00:53:43;;;;;;;15.20;13.60;;;;;;;15.01;100.00;100590.28;5034517;28;20230;-72
2021/08/18 00:56:10;;;;;;;17.23;14.77;;;;;;;14.98;100.00;100575.59;5017160;28;20875;-72
2021/08/18 00:58:42;;;;;;;16.10;13.53;;;;;;;15.03;100.00;100579.03;5033434;28;20533;-73
2021/08/18 01:01:10;;;;;;;17.13;13.07;;;;;;;15.12;100.00;100578.03;5033976;28;20225;-71
2021/08/18 01:03:37;;;;;;;16.48;14.18;;;;;;;15.01;100.00;100576.59;5024064;28;20207;-74
2021/08/18 01:06:08;;;;;;;14.97;13.37;;;;;;;15.01;100.00;100575.81;5022633;28;20250;-72
2021/08/18 01:08:36;;;;;;;14.73;13.20;;;;;;;14.99;100.00;100573.38;5030100;28;20271;-73
2021/08/18 01:11:04;;;;;;;15.37;13.83;;;;;;;15.05;100.00;100565.88;5029350;28;20771;-74
2021/08/18 01:13:34;;;;;;;16.80;14.93;;;;;;;14.85;100.00;100571.75;5048564;28;20211;-72
2021/08/18 01:16:00;;;;;;;15.27;13.67;;;;;;;14.77;100.00;100575.16;5016731;28;20260;-75
2021/08/18 01:18:30;;;;;;;16.30;13.67;;;;;;;15.02;100.00;100572.78;5033431;28;20198;-72
2021/08/18 01:21:01;;;;;;;15.97;13.87;;;;;;;15.00;100.00;100574.19;5033056;28;20314;-73
2021/08/18 01:23:29;;;;;;;17.23;13.87;;;;;;;14.83;100.00;100573.16;5032880;28;20600;-73
2021/08/18 01:25:56;;;;;;;15.70;14.03;;;;;;;14.79;100.00;100566.66;5016617;28;20227;-72
2021/08/18 01:28:32;;;;;;;16.30;13.73;;;;;;;14.93;100.00;100562.03;5029740;28;20238;-74
2021/08/18 01:31:00;;;;;;;16.70;13.13;;;;;;;14.90;100.00;100568.91;5029590;28;20238;-73
2021/08/18 01:33:28;;;;;;;14.53;13.03;;;;;;;14.92;100.00;100565.88;5021968;28;20230;-73
2021/08/18 01:35:56;;;;;;;17.30;13.60;;;;;;;14.88;100.00;100564.84;5073555;28;20717;-73
2021/08/18 01:38:22;;;;;;;16.20;13.13;;;;;;;14.98;100.00;100568.22;5032818;28;20184;-73
2021/08/18 01:40:51;;;;;;;14.60;12.33;;;;;;;15.06;100.00;100571.03;5032390;28;20246;-72
2021/08/18 01:43:17;;;;;;;15.07;13.33;;;;;;;15.09;100.00;100564.97;5013817;28;20208;-73
2021/08/18 01:45:43;;;;;;;16.63;13.67;;;;;;;14.99;100.00;100562.41;5055705;28;20215;-73
2021/08/18 01:48:19;;;;;;;15.23;12.67;;;;;;;14.95;100.00;100559.81;5031936;28;20211;-74
2021/08/18 01:50:51;;;;;;;14.00;12.47;;;;;;;14.87;100.00;100557.75;5032773;28;20243;-74
2021/08/18 01:53:26;;;;;;;16.30;13.27;;;;;;;14.92;100.00;100565.88;5024695;28;20211;-73
2021/08/18 01:55:52;;;;;;;14.07;12.57;;;;;;;14.82;100.00;100558.66;5033225;28;20712;-73
2021/08/18 01:58:18;;;;;;;15.57;13.17;;;;;;;14.86;100.00;100572.56;5035259;28;20183;-73
2021/08/18 02:00:46;;;;;;;16.03;13.07;;;;;;;14.76;100.00;100556.31;5032469;28;20611;-74
2021/08/18 02:03:16;;;;;;;15.00;12.57;;;;;;;15.05;100.00;100561.22;5013456;28;20241;-73
2021/08/18 02:05:41;;;;;;;16.13;12.60;;;;;;;14.93;100.00;100564.78;5029085;28;20224;-72
2021/08/18 02:08:09;;;;;;;15.10;12.93;;;;;;;14.97;100.00;100563.84;5005285;28;20186;-74
2021/08/18 02:10:38;;;;;;;15.83;13.13;;;;;;;14.93;100.00;100562.03;5032222;28;20231;-72
2021/08/18 02:13:05;;;;;;;15.20;13.40;;;;;;;14.87;100.00;100568.69;5029302;28;20230;-73
2021/08/18 02:15:34;;;;;;;15.20;12.87;;;;;;;14.84;100.00;100567.38;5012889;28;20302;-72
2021/08/18 02:18:00;;;;;;;13.53;12.10;;;;;;;14.77;100.00;100566.16;5019610;28;20267;-73
2021/08/18 02:20:33;;;;;;;17.03;13.10;;;;;;;14.96;100.00;100561.41;5020009;28;20222;-72
2021/08/18 02:23:05;;;;;;;15.23;12.47;;;;;;;14.94;100.00;100552.69;5036442;28;20585;-72
2021/08/18 02:25:33;;;;;;;16.23;12.67;;;;;;;14.95;100.00;100557.88;5061031;28;20241;-73
2021/08/18 02:28:04;;;;;;;16.07;12.43;;;;;;;14.95;100.00;100557.06;5035107;28;20619;-73
2021/08/18 02:30:30;;;;;;;14.97;12.87;;;;;;;14.98;100.00;100553.72;5036105;28;20238;-73
2021/08/18 02:32:56;;;;;;;15.00;13.17;;;;;;;14.98;100.00;100548.25;5033037;28;20212;-72
2021/08/18 02:35:27;;;;;;;14.33;12.23;;;;;;;14.99;100.00;100555.34;5015330;28;20577;-73
2021/08/18 02:37:54;;;;;;;14.27;12.47;;;;;;;14.98;100.00;100553.72;5019300;28;20159;-74
2021/08/18 02:40:20;;;;;;;14.70;12.43;;;;;;;14.92;100.00;100546.72;5019019;28;20259;-74
2021/08/18 02:42:55;;;;;;;14.53;12.97;;;;;;;14.97;100.00;100538.44;5019566;28;20203;-72
2021/08/18 02:45:22;;;;;;;18.50;12.77;;;;;;;15.00;100.00;100536.69;5020059;28;20190;-72
2021/08/18 02:47:48;;;;;;;14.83;12.73;;;;;;;14.94;100.00;100531.63;5019534;28;20188;-73
2021/08/18 02:50:17;;;;;;;14.77;13.13;;;;;;;14.97;100.00;100530.22;5018692;28;20218;-72
2021/08/18 02:52:43;;;;;;;13.53;11.97;;;;;;;14.97;100.00;100532.94;5036059;28;20248;-72
2021/08/18 02:55:11;;;;;;;15.47;11.87;;;;;;;15.01;100.00;100532.81;5036164;28;20194;-73
2021/08/18 02:57:37;;;;;;;15.67;12.93;;;;;;;14.86;100.00;100534.25;5004858;28;20183;-73
2021/08/18 03:00:06;;;;;;;14.20;11.80;;;;;;;14.90;100.00;100527.06;5013833;28;20184;-75
2021/08/18 03:02:32;;;;;;;16.23;12.10;;;;;;;15.07;100.00;100519.84;5012140;28;20649;-73
2021/08/18 03:05:00;;;;;;;13.50;11.97;;;;;;;14.98;100.00;100520.88;4999149;28;20208;-74
2021/08/18 03:07:25;;;;;;;12.80;11.40;;;;;;;15.02;100.00;100523.53;4999644;28;20653;-72
2021/08/18 03:09:51;;;;;;;15.13;11.40;;;;;;;15.02;100.00;100518.06;4995256;28;20204;-73
2021/08/18 03:12:19;;;;;;;17.93;12.33;;;;;;;14.92;100.00;100511.16;4995485;28;20239;-73
2021/08/18 03:14:47;;;;;;;18.30;12.03;;;;;;;14.88;100.00;100516.44;4999246;28;20192;-75
2021/08/18 03:17:12;;;;;;;15.03;11.77;;;;;;;14.93;100.00;100513.59;5015474;28;20362;-72
2021/08/18 03:19:41;;;;;;;13.67;11.77;;;;;;;15.03;100.00;100510.66;4995985;28;20192;-73
2021/08/18 03:22:10;;;;;;;14.77;11.57;;;;;;;15.04;100.00;100513.09;4995029;28;20228;-73
2021/08/18 03:24:36;;;;;;;15.43;11.57;;;;;;;15.10;100.00;100506.38;5023443;28;20187;-73
2021/08/18 03:27:06;;;;;;;13.83;12.13;;;;;;;15.22;100.00;100501.25;5010827;28;20227;-71
2021/08/18 03:29:32;;;;;;;17.27;13.17;;;;;;;15.16;100.00;100502.47;5025275;28;20756;-73
2021/08/18 03:31:57;;;;;;;18.03;13.80;;;;;;;15.22;100.00;100503.16;5014652;28;20224;-71
2021/08/18 03:34:23;;;;;;;15.27;12.33;;;;;;;15.06;100.00;100508.13;5015791;28;20540;-73
2021/08/18 03:36:51;;;;;;;14.70;12.70;;;;;;;14.97;100.00;100503.66;5014994;28;20339;-72
2021/08/18 03:39:17;;;;;;;15.50;12.60;;;;;;;15.13;100.00;100513.19;4978738;28;20181;-73
2021/08/18 03:41:45;;;;;;;14.13;12.00;;;;;;;15.15;100.00;100511.78;5011345;28;20255;-73
2021/08/18 03:44:13;;;;;;;14.43;11.67;;;;;;;14.98;100.00;100501.72;5015390;28;20665;-72
2021/08/18 03:46:39;;;;;;;15.63;12.30;;;;;;;15.05;100.00;100511.16;5030719;28;20247;-73
2021/08/18 03:49:10;;;;;;;14.93;12.13;;;;;;;15.04;100.00;100499.41;5014388;28;20591;-74
2021/08/18 03:51:38;;;;;;;14.17;11.90;;;;;;;15.05;100.00;100494.75;5009981;28;20227;-73
2021/08/18 03:54:04;;;;;;;14.70;12.30;;;;;;;15.10;100.00;100492.69;5031370;28;20208;-73
2021/08/18 03:56:29;;;;;;;15.70;12.13;;;;;;;15.22;100.00;100494.94;4997791;28;20231;-71
2021/08/18 03:59:00;;;;;;;15.37;12.07;;;;;;;15.17;100.00;100503.28;5014885;28;20661;-72
2021/08/18 04:01:31;;;;;;;15.63;12.60;;;;;;;15.18;100.00;100497.50;5030113;28;20611;-74
2021/08/18 04:03:56;;;;;;;15.50;11.80;;;;;;;15.14;100.00;100509.34;5014497;28;20204;-72
2021/08/18 04:06:29;;;;;;;14.53;11.83;;;;;;;15.04;100.00;100498.59;5013799;28;20216;-73
2021/08/18 04:08:56;;;;;;;14.80;12.18;;;;;;;15.14;100.00;100507.41;5046794;28;20180;-71
2021/08/18 04:11:22;;;;;;;16.50;12.67;;;;;;;15.13;100.00;100502.25;5046962;28;20712;-73
2021/08/18 04:13:51;;;;;;;14.87;12.40;;;;;;;15.15;100.00;100500.84;5031837;28;20208;-72
2021/08/18 04:16:19;;;;;;;15.13;12.70;;;;;;;15.13;100.00;100511.28;4997987;28;20251;-72
2021/08/18 04:18:47;;;;;;;16.83;12.37;;;;;;;15.19;100.00;100501.84;4998086;28;20211;-73
2021/08/18 04:21:15;;;;;;;15.93;12.90;;;;;;;14.95;100.00;100507.84;5004206;28;20289;-71
2021/08/18 04:23:43;;;;;;;17.63;13.60;;;;;;;15.22;100.00;100503.16;5033916;28;20254;-72
2021/08/18 04:26:09;;;;;;;15.68;13.50;;;;;;;15.15;100.00;100509.06;5007975;28;20712;-72
2021/08/18 04:28:34;;;;;;;16.37;13.03;;;;;;;15.21;100.00;100513.31;5017309;28;20207;-73
2021/08/18 04:31:03;;;;;;;17.37;13.07;;;;;;;15.13;100.00;100508.56;5001070;28;20228;-73
2021/08/18 04:33:30;;;;;;;15.77;13.20;;;;;;;15.19;100.00;100512.00;4994888;28;20205;-72
2021/08/18 04:35:56;;;;;;;13.73;12.07;;;;;;;15.10;100.00;100509.13;5005583;28;20216;-72
2021/08/18 04:38:24;;;;;;;15.03;12.67;;;;;;;15.25;100.00;100511.56;5030189;28;20207;-74
2021/08/18 04:40:50;;;;;;;15.20;13.53;;;;;;;15.27;100.00;100503.84;4987863;28;20220;-72
2021/08/18 04:43:18;;;;;;;16.73;13.80;;;;;;;15.33;100.00;100505.41;5030001;28;20203;-72
2021/08/18 04:45:44;;;;;;;16.60;13.47;;;;;;;15.33;100.00;100513.59;5029556;28;20217;-74
2021/08/18 04:48:15;;;;;;;16.30;13.13;;;;;;;15.44;100.00;100509.53;5031280;28;20186;-72
2021/08/18 04:50:41;;;;;;;15.23;12.90;;;;;;;15.40;100.00;100511.25;5035579;28;20234;-72
2021/08/18 04:53:08;;;;;;;15.67;12.57;;;;;;;15.39;100.00;100496.75;5044071;28;20195;-73
2021/08/18 04:55:33;;;;;;;15.13;12.73;;;;;;;15.42;100.00;100495.34;5016602;28;20689;-73
2021/08/18 04:58:01;;;;;;;14.47;12.93;;;;;;;15.39;100.00;100484.19;5049399;28;20218;-73
2021/08/18 05:00:29;;;;;;;13.07;11.67;;;;;;;15.39;100.00;100490.47;5065922;28;20247;-72
2021/08/18 05:02:55;;;;;;;13.30;11.90;;;;;;;15.37;100.00;100498.19;5066448;28;20211;-72
2021/08/18 05:05:23;;;;;;;16.10;12.40;;;;;;;15.40;100.00;100505.75;5032923;28;20719;-73
2021/08/18 05:07:50;;;;;;;12.13;10.87;;;;;;;15.40;100.00;100508.50;5033329;28;20184;-72
2021/08/18 05:10:20;;;;;;;13.30;10.80;;;;;;;15.39;100.00;100504.16;5033149;28;20211;-73
2021/08/18 05:12:46;;;;;;;13.83;11.67;;;;;;;15.32;100.00;100506.50;5017235;28;20208;-72
2021/08/18 05:15:12;;;;;;;14.07;11.23;;;;;;;15.50;100.00;100497.34;5032556;28;20183;-72
2021/08/18 05:17:37;;;;;;;13.50;11.93;;;;;;;15.50;100.00;100497.34;5033551;28;20222;-73
2021/08/18 05:20:06;;;;;;;12.67;10.90;;;;;;;15.56;100.00;100502.38;5016041;28;20187;-71
2021/08/18 05:22:36;;;;;;;12.17;10.03;;;;;;;15.61;100.00;100512.44;5024565;28;20207;-72
2021/08/18 05:25:04;;;;;;;12.33;9.90;;;;;;;15.63;100.00;100505.50;5032955;28;20254;-72
2021/08/18 05:27:30;;;;;;;12.87;10.30;;;;;;;15.78;100.00;100495.00;5016367;28;20219;-72
2021/08/18 05:29:58;;;;;;;12.20;9.70;;;;;;;15.66;100.00;100493.13;5032701;28;20730;-73
2021/08/18 05:32:24;;;;;;;12.25;10.65;;;;;;;15.67;100.00;100481.06;5015806;28;20239;-72
2021/08/18 05:34:49;;;;;;;10.85;9.80;;;;;;;15.76;100.00;100490.16;5033049;28;20255;-72
2021/08/18 05:37:15;;;;;;;10.98;9.80;;;;;;;15.92;100.00;100475.78;5015713;28;20219;-72
2021/08/18 05:39:40;;;;;;;12.70;10.30;;;;;;;15.85;100.00;100489.91;5016393;28;20180;-72
2021/08/18 05:42:06;;;;;;;11.00;9.90;;;;;;;15.83;100.00;100486.66;5024268;28;20276;-73
2021/08/18 05:44:31;;;;;;;10.93;9.82;;;;;;;15.83;100.00;100492.16;5049691;28;20168;-73
2021/08/18 05:46:57;;;;;;;10.00;8.93;;;;;;;15.95;100.00;100495.16;5055025;28;20218;-73
2021/08/18 05:49:25;;;;;;;11.70;9.82;;;;;;;16.08;100.00;100494.28;5049071;28;20211;-74
2021/08/18 05:51:51;;;;;;;10.60;9.40;;;;;;;16.06;100.00;100482.84;5052557;28;20224;-73
2021/08/18 05:54:17;;;;;;;10.10;9.10;;;;;;;16.02;100.00;100478.28;5040032;28;20190;-72
2021/08/18 05:56:45;;;;;;;9.77;8.83;;;;;;;16.06;100.00;100480.09;5045823;28;20271;-72
2021/08/18 05:59:11;;;;;;;10.27;9.27;;;;;;;16.23;100.00;100488.47;5033022;28;20687;-70
2021/08/18 06:01:37;;;;;;;9.93;8.93;;;;;;;16.41;100.00;100492.91;5035854;28;20238;-71
2021/08/18 06:04:07;;;;;;;9.73;8.68;;;;;;;16.19;100.00;100484.72;5036428;28;20697;-71
2021/08/18 06:06:33;;;;;;;10.23;8.57;;;;;;;16.21;100.00;100483.28;5069008;28;20606;-71
2021/08/18 06:08:58;;;;;;;9.63;8.63;;;;;;;16.07;100.00;100492.66;5019705;28;20196;-71
2021/08/18 06:11:24;;;;;;;10.23;9.10;;;;;;;16.01;100.00;100493.91;5035907;28;20223;-73
2021/08/18 06:13:52;;;;;;;10.67;8.80;;;;;;;16.09;100.00;100492.34;5019731;28;20689;-73
2021/08/18 06:16:21;;;;;;;11.43;8.13;;;;;;;16.34;100.00;100492.56;5059754;28;20240;-72
2021/08/18 06:18:51;;;;;;;9.23;7.97;;;;;;;16.34;100.00;100495.31;5044584;28;20187;-73
2021/08/18 06:21:19;;;;;;;8.32;7.53;;;;;;;16.33;100.00;100501.88;5035226;28;20227;-74
2021/08/18 06:23:47;;;;;;;8.43;7.55;;;;;;;16.18;100.00;100491.31;5036574;28;20230;-73
2021/08/18 06:26:12;;;;;;;8.07;7.15;;;;;;;16.21;100.00;100496.97;5020025;28;20235;-73
2021/08/18 06:28:38;;;;;;;8.27;6.53;;;;;;;16.39;100.00;100501.47;5015899;28;20186;-72
2021/08/18 06:31:04;;;;;;;8.75;6.80;;;;;;;16.52;100.00;100497.81;5048897;28;20315;-72
2021/08/18 06:33:30;;;;;;;8.75;7.38;;;;;;;16.47;100.00;100497.94;5032806;28;20203;-74
2021/08/18 06:36:00;;;;;;;8.15;7.10;;;;;;;16.60;100.00;100505.28;5035092;28;20232;-72
2021/08/18 06:38:26;;;;;;;8.00;6.55;;;;;;;16.56;100.00;100499.59;5018980;28;20184;-74
2021/08/18 06:40:52;;;;;;;6.45;5.50;;;;;;;16.64;100.00;100501.56;5022447;28;20230;-73
2021/08/18 06:43:18;;;;;;;7.43;5.80;;;;;;;16.68;100.00;100499.84;5023335;28;20206;-73
2021/08/18 06:45:43;;;;;;;7.03;5.95;;;;;;;16.62;100.00;100500.28;5053128;28;20696;-73
2021/08/18 06:48:11;;;;;;;6.85;6.07;;;;;;;16.95;100.00;100499.63;5035138;28;20184;-72
2021/08/18 06:50:39;;;;;;;6.93;5.63;;;;;;;16.81;100.00;100492.63;5068078;28;20224;-72
2021/08/18 06:53:09;;;;;;;6.30;5.70;;;;;;;16.56;100.00;100496.88;5069148;28;20211;-72
2021/08/18 06:55:35;;;;;;;7.40;5.22;;;;;;;16.43;100.00;100496.97;5041151;28;20288;-73
2021/08/18 06:58:01;;;;;;;7.30;5.97;;;;;;;16.17;100.00;100498.72;5056771;28;20191;-70
2021/08/18 07:00:27;;;;;;;6.03;5.28;;;;;;;16.33;100.00;100499.16;5020477;28;20228;-74
2021/08/18 07:02:54;;;;;;;5.82;5.10;;;;;;;16.47;100.00;100499.88;5018997;28;20239;-76
2021/08/18 07:05:20;;;;;;;6.80;5.78;;;;;;;16.44;100.00;100492.28;5035483;28;20180;-71
2021/08/18 07:07:48;;;;;;;5.80;5.13;;;;;;;16.34;100.00;100498.03;5015494;28;20627;-70
2021/08/18 07:10:14;;;;;;;5.72;5.13;;;;;;;16.35;100.00;100505.13;5031688;28;20220;-72
2021/08/18 07:12:40;;;;;;;6.55;5.20;;;;;;;16.38;100.00;100496.28;5004054;28;20603;-73
2021/08/18 07:15:08;;;;;;;5.70;4.68;;;;;;;16.24;100.00;100515.56;5035608;28;20187;-75
2021/08/18 07:17:36;;;;;;;6.65;5.20;;;;;;;15.75;100.00;100507.69;5052428;28;20187;-75
2021/08/18 07:20:01;;;;;;;7.47;5.10;;;;;;;15.60;100.00;100513.53;5034491;28;20174;-73
2021/08/18 07:22:27;;;;;;;6.07;5.30;;;;;;;15.74;100.00;100498.69;5048481;28;20224;-73
2021/08/18 07:24:55;;;;;;;7.13;5.43;;;;;;;15.83;100.00;100505.84;5015541;28;20180;-72
2021/08/18 07:27:21;;;;;;;6.07;5.47;;;;;;;15.86;100.00;100507.97;5014465;28;20883;-72
2021/08/18 07:29:49;;;;;;;6.05;5.25;;;;;;;15.96;100.00;100496.78;4995328;28;20254;-73
2021/08/18 07:32:14;;;;;;;7.80;5.47;;;;;;;15.87;100.00;100504.09;5010649;28;20229;-75
2021/08/18 07:34:40;;;;;;;6.82;5.57;;;;;;;15.91;100.00;100510.56;5015404;28;20187;-72
2021/08/18 07:37:08;;;;;;;6.28;5.60;;;;;;;15.99;100.00;100501.63;5048606;28;20227;-74
2021/08/18 07:39:34;;;;;;;6.97;5.73;;;;;;;16.17;100.00;100503.34;5034904;28;20741;-72
2021/08/18 07:42:02;;;;;;;6.77;5.80;;;;;;;16.10;100.00;100511.22;5018656;28;20215;-73
2021/08/18 07:44:30;;;;;;;6.68;5.95;;;;;;;16.08;100.00;100502.50;5015708;28;20579;-73
2021/08/18 07:46:55;;;;;;;6.43;5.27;;;;;;;16.16;100.00;100509.97;5026256;28;20776;-76
2021/08/18 07:49:21;;;;;;;6.60;5.75;;;;;;;16.20;100.00;100508.25;5018936;28;20237;-74
2021/08/18 07:51:49;;;;;;;5.57;5.07;;;;;;;16.33;100.00;100508.19;5018858;28;20716;-73
2021/08/18 07:54:17;;;;;;;7.03;5.00;;;;;;;16.44;100.00;100512.28;5016105;28;20188;-74
2021/08/18 07:56:43;;;;;;;6.97;5.45;;;;;;;16.71;100.00;100507.44;5031579;28;20390;-73
2021/08/18 07:59:10;;;;;;;6.47;4.70;;;;;;;16.72;100.00;100500.00;5058823;28;20175;-73
2021/08/18 08:01:36;;;;;;;4.97;4.07;;;;;;;16.62;100.00;100509.31;5019273;28;20254;-75
2021/08/18 08:04:04;;;;;;;4.68;3.90;;;;;;;16.62;100.00;100498.34;5051923;28;20196;-74
2021/08/18 08:06:30;;;;;;;6.28;4.25;;;;;;;16.84;100.00;100492.78;5018791;28;20353;-76
2021/08/18 08:08:55;;;;;;;3.90;3.40;;;;;;;17.01;100.00;100498.34;5005401;28;20765;-73
2021/08/18 08:11:21;;;;;;;4.32;3.55;;;;;;;16.96;100.00;100495.75;5067763;28;20223;-75
2021/08/18 08:13:48;;;;;;;4.90;3.10;;;;;;;17.18;100.00;100492.94;5033764;28;20684;-73
2021/08/18 08:16:16;;;;;;;4.50;3.05;;;;;;;17.08;100.00;100506.94;5017941;28;20314;-74
2021/08/18 08:18:42;;;;;;;3.40;3.10;;;;;;;17.07;100.00;100500.63;5015246;28;20189;-73
2021/08/18 08:21:12;;;;;;;5.72;3.15;;;;;;;17.17;100.00;100511.34;4998259;28;20315;-73
2021/08/18 08:23:38;;;;;;;3.80;2.95;;;;;;;17.20;100.00;100505.22;5034608;28;20198;-73
2021/08/18 08:26:08;;;;;;;3.20;2.90;;;;;;;17.47;100.00;100503.03;5034392;28;20685;-73
2021/08/18 08:28:34;;;;;;;4.03;2.80;;;;;;;17.65;100.00;100501.91;5034289;28;20187;-75
2021/08/18 08:31:00;;;;;;;3.10;2.80;;;;;;;17.68;100.00;100503.22;5017951;28;20242;-74
2021/08/18 08:33:25;;;;;;;4.43;3.03;;;;;;;17.79;100.00;100508.06;5034703;28;20282;-73
2021/08/18 08:35:56;;;;;;;4.15;2.92;;;;;;;17.66;100.00;100516.47;5014437;28;20298;-74
2021/08/18 08:38:21;;;;;;;3.72;2.90;;;;;;;17.76;100.00;100511.44;5014647;28;20185;-74
2021/08/18 08:40:47;;;;;;;3.15;2.72;;;;;;;17.70;100.00;100509.19;5032429;28;20223;-74
2021/08/18 08:43:16;;;;;;;6.28;2.75;;;;;;;17.55;100.00;100509.66;5034276;28;20206;-73
2021/08/18 08:45:42;;;;;;;5.68;2.95;;;;;;;17.61;100.00;100508.38;5013417;28;20250;-74
2021/08/18 08:48:08;;;;;;;3.10;2.80;;;;;;;17.66;100.00;100511.78;5030995;28;20188;-74
2021/08/18 08:50:36;;;;;;;3.53;2.78;;;;;;;17.66;100.00;100509.03;5050469;28;20608;-73
2021/08/18 08:53:01;;;;;;;3.13;2.67;;;;;;;17.53;100.00;100504.50;5068318;28;20207;-74
2021/08/18 08:55:27;;;;;;;5.22;2.55;;;;;;;17.44;100.00;100502.84;5014075;28;20299;-74
2021/08/18 08:57:54;;;;;;;5.85;3.10;;;;;;;17.40;100.00;100510.13;5047673;28;20173;-74
2021/08/18 09:00:20;;;;;;;3.67;3.10;;;;;;;17.29;100.00;100513.47;5034333;28;20314;-75
2021/08/18 09:02:47;;;;;;;4.55;2.90;;;;;;;17.14;100.00;100519.38;5017696;28;20199;-74
2021/08/18 09:05:27;;;;;;;5.97;2.75;;;;;;;17.50;100.00;100524.34;5014369;28;20264;-72
2021/08/18 09:07:56;;;;;;;3.55;2.55;;;;;;;17.37;100.00;100519.00;5015508;28;20589;-75
2021/08/18 09:10:21;;;;;;;3.35;2.55;;;;;;;17.20;100.00;100523.66;5019035;28;20218;-75
2021/08/18 09:12:47;;;;;;;3.75;2.70;;;;;;;17.29;100.00;100519.78;5018837;28;20203;-74
2021/08/18 09:15:16;;;;;;;4.70;2.60;;;;;;;17.67;100.00;100515.31;5066146;28;20176;-74
2021/08/18 09:17:41;;;;;;;3.83;2.30;;;;;;;17.54;100.00;100514.31;5035468;28;20218;-75
2021/08/18 09:20:11;;;;;;;4.65;3.00;;;;;;;17.78;100.00;100517.44;5016819;28;20172;-74
2021/08/18 09:22:47;;;;;;;3.28;2.47;;;;;;;17.84;100.00;100524.41;5034506;28;20208;-74
2021/08/18 09:25:21;;;;;;;5.43;2.40;;;;;;;17.95;100.00;100520.19;5030360;28;20184;-73
2021/08/18 09:27:50;;;;;;;3.72;2.60;;;;;;;17.76;100.00;100519.69;5019155;28;20180;-75
2021/08/18 09:30:18;;;;;;;4.18;2.88;;;;;;;17.81;100.00;100522.28;5041648;28;20242;-74
2021/08/18 09:32:44;;;;;;;4.50;2.70;;;;;;;17.53;100.00;100523.72;5056527;28;20179;-73
2021/08/18 09:35:13;;;;;;;2.92;2.28;;;;;;;17.42;100.00;100516.09;5034015;28;20214;-74
2021/08/18 09:38:04;;;;;;;3.72;2.50;;;;;;;17.38;100.00;100515.94;5035255;28;20645;-74
2021/08/18 09:40:42;;;;;;;4.03;2.50;;;;;;;17.52;100.00;100510.28;5025623;28;20273;-74
2021/08/18 09:43:08;;;;;;;5.30;2.60;;;;;;;17.35;100.00;100516.56;5054882;28;20249;-74
2021/08/18 09:45:34;;;;;;;3.35;2.53;;;;;;;17.58;100.00;100512.59;5036941;28;20223;-76
2021/08/18 09:48:17;;;;;;;3.47;2.55;;;;;;;17.47;100.00;100519.50;5037850;28;20226;-75
2021/08/18 09:50:58;;;;;;;2.85;2.40;;;;;;;17.57;100.00;100519.19;5033228;28;20292;-74
2021/08/18 09:53:38;;;;;;;2.83;2.50;;;;;;;17.36;100.00;100517.38;5037437;28;20214;-75
2021/08/18 09:56:16;;;;;;;4.43;2.55;;;;;;;17.34;100.00;100525.94;5033575;28;20235;-75
2021/08/18 09:58:53;;;;;;;2.75;2.53;;;;;;;17.29;100.00;100527.19;5034299;28;20293;-73
2021/08/18 10:01:21;;;;;;;3.92;2.60;;;;;;;17.20;100.00;100529.13;5022152;28;20219;-73
2021/08/18 10:03:52;;;;;;;2.90;2.70;;;;;;;17.25;100.00;100521.56;5021515;28;20203;-75
2021/08/18 10:06:18;;;;;;;3.20;2.47;;;;;;;17.38;100.00;100537.09;5018054;28;20263;-73
2021/08/18 10:08:46;;;;;;;3.03;2.42;;;;;;;17.33;100.00;100535.31;5020150;28;20180;-73
2021/08/18 10:11:14;;;;;;;3.08;2.40;;;;;;;16.97;100.00;100541.28;5022604;28;20277;-76
2021/08/18 10:13:45;;;;;;;4.63;2.70;;;;;;;16.81;100.00;100542.00;5023304;28;20203;-73
2021/08/18 10:16:10;;;;;;;3.15;2.90;;;;;;;16.76;100.00;100539.41;5017352;28;20220;-75
2021/08/18 10:18:42;;;;;;;4.32;3.13;;;;;;;16.66;100.00;100540.47;5053207;28;20195;-75
2021/08/18 10:21:18;;;;;;;6.22;3.50;;;;;;;16.56;100.00;100550.13;5027676;28;20238;-73
2021/08/18 10:24:03;;;;;;;4.65;3.53;;;;;;;16.48;100.00;100542.63;5026303;28;20269;-74
2021/08/18 10:26:32;;;;;;;4.25;3.75;;;;;;;16.69;100.00;100526.13;5056498;28;20224;-75
2021/08/18 10:29:04;;;;;;;4.45;3.50;;;;;;;16.50;100.00;100530.25;5040184;28;20191;-73
2021/08/18 10:31:48;;;;;;;4.15;3.40;;;;;;;16.66;100.00;100528.69;5058487;28;20697;-75
2021/08/18 10:34:23;;;;;;;3.72;3.42;;;;;;;16.88;100.00;100523.97;5053253;28;20196;-75
2021/08/18 10:36:53;;;;;;;3.35;3.03;;;;;;;17.08;100.00;100531.63;5043040;28;20254;-76
2021/08/18 10:39:21;;;;;;;5.55;3.83;;;;;;;17.29;100.00;100518.97;5041757;28;20658;-73
2021/08/18 10:41:59;;;;;;;3.40;3.00;;;;;;;17.34;100.00;100523.19;5057325;28;20220;-75
2021/08/18 10:44:33;;;;;;;3.85;3.42;;;;;;;17.67;100.00;100524.38;5038648;28;20183;-72
2021/08/18 10:47:24;;;;;;;3.90;3.53;;;;;;;17.76;100.00;100528.75;5055151;28;20623;-72
2021/08/18 10:49:53;;;;;;;3.72;3.25;;;;;;;17.69;100.00;100522.13;5043399;28;20228;-73
2021/08/18 10:52:41;;;;;;;4.65;3.42;;;;;;;17.83;100.00;100522.78;5050738;28;20231;-74
2021/08/18 10:55:17;;;;;;;5.38;3.53;;;;;;;17.65;100.00;100510.13;5030663;28;20204;-73
2021/08/18 10:57:48;;;;;;;3.95;3.40;;;;;;;17.39;100.00;100512.03;5022566;28;20188;-74
2021/08/18 11:00:22;;;;;;;4.43;4.03;;;;;;;17.38;100.00;100515.94;5022926;28;20179;-75
2021/08/18 11:03:03;;;;;;;4.50;3.92;;;;;;;17.81;100.00;100514.03;5056526;28;20282;-74
2021/08/18 11:05:37;;;;;;;4.80;3.97;;;;;;;18.11;100.00;100522.13;5031423;28;20219;-75
2021/08/18 11:08:40;;;;;;;4.75;3.42;;;;;;;18.60;100.00;100512.19;5055645;28;20164;-76
2021/08/18 11:11:07;;;;;;;4.20;3.50;;;;;;;18.99;100.00;100504.47;5056190;28;20277;-74
2021/08/18 11:13:41;;;;;;;3.95;3.17;;;;;;;18.86;100.00;100504.66;5035292;28;20211;-74
2021/08/18 11:16:19;;;;;;;2.97;2.47;;;;;;;18.69;100.00;100514.91;5035348;28;20234;-75